Liberty — FHQD — position and weather

sailwx.info

Track history (hours):
 
Tides and Currents Weather Stations Pressure Air Temp Water Temp Dewpoint Dewpoint Depression Visibility Wind Speed Wind Dir Waves Ship Positions

Liberty

Last reported at 2018-May-20 19:19 UTC. Time now 2018-May-21 09:05 UTC.
Position N 14°35' W 061°04'.

Length 47 m; draft 1.8 m.

Type: High speed craft. MMSI: 228008600.

Date/timePositionNaut miles runAvg speedWind from/ knotsBaromVisibWave heightAir tempDewpointWater temp
2018-May-20 19:19N 14°35' W 061°04'826.2
2018-May-20 19:01N 14°26' W 061°05'13 0.6
2018-May-19 20:12N 14°13' W 061°04'524.8
2018-May-19 19:59N 14°18' W 061°05'1225.4
2018-May-19 19:30N 14°30' W 061°06'611.6
2018-May-19 18:57N 14°36' W 061°04'0 0.0
2018-May-19 18:29N 14°36' W 061°04'0 0.0
2018-May-19 18:00N 14°36' W 061°04'8 0.3
2018-May-18 13:56N 14°40' W 061°11'8 7.6
2018-May-18 12:54N 14°36' W 061°04'821.2
2018-May-18 12:30N 14°28' W 061°06'1225.1
2018-May-18 12:00N 14°16' W 061°03'5 0.6
2018-May-18 03:16N 14°11' W 061°03'726.9
2018-May-18 03:01N 14°18' W 061°03'1427.5
2018-May-18 02:30N 14°32' W 061°06'5 9.5
2018-May-18 01:58N 14°36' W 061°04'6 0.4
2018-May-17 12:53N 14°38' W 061°09'6 1.9
2018-May-17 09:49N 14°36' W 061°04'0 0.0
2018-May-17 09:21N 14°36' W 061°04'0 0.0
2018-May-17 08:11N 14°36' W 061°04'0 0.0
2018-May-17 07:59N 14°36' W 061°04'0 0.0
2018-May-17 07:23N 14°36' W 061°04'0 0.0
2018-May-17 06:01N 14°36' W 061°04'0 0.0
2018-May-17 06:00N 14°36' W 061°04'0 0.0
2018-May-16 21:15N 14°36' W 061°04'623.9
2018-May-16 21:00N 14°31' W 061°07'1225.2
2018-May-16 20:31N 14°19' W 061°04'8 3.5
2018-May-16 18:10N 14°10' W 061°02'626.7
2018-May-16 17:57N 14°16' W 061°04'1228.2
2018-May-16 17:30N 14°28' W 061°06'8 6.1
2018-May-16 16:16N 14°35' W 061°04'97 3.5
2018-May-15 12:36N 16°10' W 061°28'224.7
2018-May-15 12:30N 16°11' W 061°30'4 5.7
2018-May-15 11:49N 16°14' W 061°33'0 0.0
2018-May-15 11:04N 16°14' W 061°33'0 4.0
2018-May-15 11:00N 16°14' W 061°32'11 0.8
2018-May-14 21:48N 16°05' W 061°26'926.2
2018-May-14 21:27N 16°12' W 061°31'3 5.6
2018-May-14 21:00N 16°14' W 061°33'6 1.7
2018-May-14 17:35N 16°10' W 061°29'226.4
2018-May-14 17:30N 16°11' W 061°30'3 7.0
2018-May-14 17:00N 16°14' W 061°33'12 2.9
2018-May-14 12:49N 16°04' W 061°26'1025.9
2018-May-14 12:26N 16°12' W 061°31'2 0.2
2018-May-14 00:52N 16°14' W 061°33'717.9
2018-May-14 00:30N 16°08' W 061°30'9024.1
2018-May-13 20:47N 14°40' W 061°11'726.3
2018-May-13 20:30N 14°35' W 061°06'2 3.3
2018-May-13 19:57N 14°36' W 061°04'919.7
2018-May-13 19:31N 14°27' W 061°05'1020.5
2018-May-13 19:00N 14°17' W 061°03'2 0.1
2018-May-12 19:26N 14°16' W 061°04'1125.5
2018-May-12 19:01N 14°26' W 061°06'10 7.3
2018-May-12 17:36N 14°36' W 061°04'1 5.7
2018-May-12 17:31N 14°36' W 061°04'7420.5
2018-May-12 13:54N 15°44' W 061°34'820.5
2018-May-12 13:29N 15°52' W 061°35'1319.3
2018-May-12 12:49N 16°04' W 061°31'825.2
2018-May-12 12:30N 16°12' W 061°32'2 4.1
2018-May-12 11:54N 16°14' W 061°32'0 0.0
2018-May-12 11:29N 16°14' W 061°32'0 0.0
2018-May-12 11:00N 16°14' W 061°32'0 0.0
2018-May-12 10:28N 16°14' W 061°32'0 0.0
2018-May-12 10:01N 16°14' W 061°32'0 0.0
2018-May-12 09:29N 16°14' W 061°32'0 0.0
2018-May-12 08:53N 16°14' W 061°32'0 0.0
2018-May-12 08:29N 16°14' W 061°32'0 0.0
2018-May-12 08:00N 16°14' W 061°32'0 0.0
2018-May-12 07:29N 16°14' W 061°32'0 0.0
2018-May-12 06:59N 16°14' W 061°32'0 0.0
2018-May-12 06:30N 16°14' W 061°32'0 0.0
2018-May-12 06:01N 16°14' W 061°32'0 0.0
2018-May-12 05:30N 16°14' W 061°32'0 0.0
2018-May-12 04:57N 16°14' W 061°32'0 0.0
2018-May-12 04:27N 16°14' W 061°32'0 0.0
2018-May-12 01:54N 16°14' W 061°32'0 0.0
2018-May-12 01:29N 16°14' W 061°32'0 0.0
2018-May-12 00:57N 16°14' W 061°32'0 0.0
2018-May-12 00:04N 16°14' W 061°32'0 0.0
2018-May-11 21:34N 16°14' W 061°32'0 0.0
2018-May-11 21:17N 16°14' W 061°32'0 0.0
2018-May-11 19:46N 16°14' W 061°32'312.3
2018-May-11 19:30N 16°11' W 061°32'9924.1
2018-May-11 15:23N 14°35' W 061°05'2 2.2
2018-May-11 14:39N 14°36' W 061°04'0 0.0
2018-May-11 14:30N 14°36' W 061°04'1121.9
2018-May-11 14:00N 14°25' W 061°06'8 3.3
2018-May-11 11:34N 14°17' W 061°04'227.3
2018-May-11 11:30N 14°19' W 061°05'1427.7
2018-May-11 11:00N 14°33' W 061°06'4 4.8
2018-May-11 10:12N 14°36' W 061°04'0 0.0
2018-May-11 09:38N 14°36' W 061°04'0 0.0
2018-May-11 09:28N 14°36' W 061°04'0 0.0
2018-May-11 06:33N 14°36' W 061°04'0 0.0
2018-May-11 06:24N 14°36' W 061°04'0 0.0
2018-May-11 05:54N 14°36' W 061°04'0 0.0
2018-May-11 05:17N 14°36' W 061°04'0 0.0
2018-May-11 04:08N 14°36' W 061°04'0 0.0
2018-May-11 03:53N 14°36' W 061°04'0 0.0
2018-May-11 03:04N 14°36' W 061°04'0 1.7
2018-May-11 03:00N 14°36' W 061°04'1020.4
2018-May-11 02:31N 14°26' W 061°03'1020.8
2018-May-11 02:00N 14°28' W 060°52'0 0.3
2018-May-11 01:28N 14°28' W 060°52'511.4
2018-May-11 01:01N 14°24' W 060°55'1223.3
2018-May-11 00:30N 14°12' W 060°58'  
Track history (hours):
 
Tides and Currents Weather Stations Pressure Air Temp Water Temp Dewpoint Dewpoint Depression Visibility Wind Speed Wind Dir Waves Ship Positions

Liberty

Last reported at 2018-May-20 19:19 UTC. Time now 2018-May-21 09:05 UTC.
Position N 14°35' W 061°04'.

Length 47 m; draft 1.8 m.

Type: High speed craft. MMSI: 228008600.

Date/timePositionNaut miles runAvg speedWind from/ knotsBaromVisibWave heightAir tempDewpointWater temp
2018-May-20 19:19N 14°35' W 061°04'826.2
2018-May-20 19:01N 14°26' W 061°05'13 0.6
2018-May-19 20:12N 14°13' W 061°04'524.8
2018-May-19 19:59N 14°18' W 061°05'1225.4
2018-May-19 19:30N 14°30' W 061°06'611.6
2018-May-19 18:57N 14°36' W 061°04'0 0.0
2018-May-19 18:29N 14°36' W 061°04'0 0.0
2018-May-19 18:00N 14°36' W 061°04'8 0.3
2018-May-18 13:56N 14°40' W 061°11'8 7.6
2018-May-18 12:54N 14°36' W 061°04'821.2
2018-May-18 12:30N 14°28' W 061°06'1225.1
2018-May-18 12:00N 14°16' W 061°03'5 0.6
2018-May-18 03:16N 14°11' W 061°03'726.9
2018-May-18 03:01N 14°18' W 061°03'1427.5
2018-May-18 02:30N 14°32' W 061°06'5 9.5
2018-May-18 01:58N 14°36' W 061°04'6 0.4
2018-May-17 12:53N 14°38' W 061°09'6 1.9
2018-May-17 09:49N 14°36' W 061°04'0 0.0
2018-May-17 09:21N 14°36' W 061°04'0 0.0
2018-May-17 08:11N 14°36' W 061°04'0 0.0
2018-May-17 07:59N 14°36' W 061°04'0 0.0
2018-May-17 07:23N 14°36' W 061°04'0 0.0
2018-May-17 06:01N 14°36' W 061°04'0 0.0
2018-May-17 06:00N 14°36' W 061°04'0 0.0
2018-May-16 21:15N 14°36' W 061°04'623.9
2018-May-16 21:00N 14°31' W 061°07'1225.2
2018-May-16 20:31N 14°19' W 061°04'8 3.5
2018-May-16 18:10N 14°10' W 061°02'626.7
2018-May-16 17:57N 14°16' W 061°04'1228.2
2018-May-16 17:30N 14°28' W 061°06'8 6.1
2018-May-16 16:16N 14°35' W 061°04'97 3.5
2018-May-15 12:36N 16°10' W 061°28'224.7
2018-May-15 12:30N 16°11' W 061°30'4 5.7
2018-May-15 11:49N 16°14' W 061°33'0 0.0
2018-May-15 11:04N 16°14' W 061°33'0 4.0
2018-May-15 11:00N 16°14' W 061°32'11 0.8
2018-May-14 21:48N 16°05' W 061°26'926.2
2018-May-14 21:27N 16°12' W 061°31'3 5.6
2018-May-14 21:00N 16°14' W 061°33'6 1.7
2018-May-14 17:35N 16°10' W 061°29'226.4
2018-May-14 17:30N 16°11' W 061°30'3 7.0
2018-May-14 17:00N 16°14' W 061°33'12 2.9
2018-May-14 12:49N 16°04' W 061°26'1025.9
2018-May-14 12:26N 16°12' W 061°31'2 0.2
2018-May-14 00:52N 16°14' W 061°33'717.9
2018-May-14 00:30N 16°08' W 061°30'9024.1
2018-May-13 20:47N 14°40' W 061°11'726.3
2018-May-13 20:30N 14°35' W 061°06'2 3.3
2018-May-13 19:57N 14°36' W 061°04'919.7
2018-May-13 19:31N 14°27' W 061°05'1020.5
2018-May-13 19:00N 14°17' W 061°03'2 0.1
2018-May-12 19:26N 14°16' W 061°04'1125.5
2018-May-12 19:01N 14°26' W 061°06'10 7.3
2018-May-12 17:36N 14°36' W 061°04'1 5.7
2018-May-12 17:31N 14°36' W 061°04'7420.5
2018-May-12 13:54N 15°44' W 061°34'820.5
2018-May-12 13:29N 15°52' W 061°35'1319.3
2018-May-12 12:49N 16°04' W 061°31'825.2
2018-May-12 12:30N 16°12' W 061°32'2 4.1
2018-May-12 11:54N 16°14' W 061°32'0 0.0
2018-May-12 11:29N 16°14' W 061°32'0 0.0
2018-May-12 11:00N 16°14' W 061°32'0 0.0
2018-May-12 10:28N 16°14' W 061°32'0 0.0
2018-May-12 10:01N 16°14' W 061°32'0 0.0
2018-May-12 09:29N 16°14' W 061°32'0 0.0
2018-May-12 08:53N 16°14' W 061°32'0 0.0
2018-May-12 08:29N 16°14' W 061°32'0 0.0
2018-May-12 08:00N 16°14' W 061°32'0 0.0
2018-May-12 07:29N 16°14' W 061°32'0 0.0
2018-May-12 06:59N 16°14' W 061°32'0 0.0
2018-May-12 06:30N 16°14' W 061°32'0 0.0
2018-May-12 06:01N 16°14' W 061°32'0 0.0
2018-May-12 05:30N 16°14' W 061°32'0 0.0
2018-May-12 04:57N 16°14' W 061°32'0 0.0
2018-May-12 04:27N 16°14' W 061°32'0 0.0
2018-May-12 01:54N 16°14' W 061°32'0 0.0
2018-May-12 01:29N 16°14' W 061°32'0 0.0
2018-May-12 00:57N 16°14' W 061°32'0 0.0
2018-May-12 00:04N 16°14' W 061°32'0 0.0
2018-May-11 21:34N 16°14' W 061°32'0 0.0
2018-May-11 21:17N 16°14' W 061°32'0 0.0
2018-May-11 19:46N 16°14' W 061°32'312.3
2018-May-11 19:30N 16°11' W 061°32'9924.1
2018-May-11 15:23N 14°35' W 061°05'2 2.2
2018-May-11 14:39N 14°36' W 061°04'0 0.0
2018-May-11 14:30N 14°36' W 061°04'1121.9
2018-May-11 14:00N 14°25' W 061°06'8 3.3
2018-May-11 11:34N 14°17' W 061°04'227.3
2018-May-11 11:30N 14°19' W 061°05'1427.7
2018-May-11 11:00N 14°33' W 061°06'4 4.8
2018-May-11 10:12N 14°36' W 061°04'0 0.0
2018-May-11 09:38N 14°36' W 061°04'0 0.0
2018-May-11 09:28N 14°36' W 061°04'0 0.0
2018-May-11 06:33N 14°36' W 061°04'0 0.0
2018-May-11 06:24N 14°36' W 061°04'0 0.0
2018-May-11 05:54N 14°36' W 061°04'0 0.0
2018-May-11 05:17N 14°36' W 061°04'0 0.0
2018-May-11 04:08N 14°36' W 061°04'0 0.0
2018-May-11 03:53N 14°36' W 061°04'0 0.0
2018-May-11 03:04N 14°36' W 061°04'0 1.7
2018-May-11 03:00N 14°36' W 061°04'1020.4
2018-May-11 02:31N 14°26' W 061°03'1020.8
2018-May-11 02:00N 14°28' W 060°52'0 0.3
2018-May-11 01:28N 14°28' W 060°52'511.4
2018-May-11 01:01N 14°24' W 060°55'1223.3
2018-May-11 00:30N 14°12' W 060°58'  

Dump ship's entire track history